createdAt,value
2022-08-10T00:01:54.119Z,0.90
2022-08-10T00:04:24.590Z,0.70
2022-08-10T00:06:52.864Z,0.70
2022-08-10T00:09:20.171Z,0.90
2022-08-10T00:11:47.307Z,1.23
2022-08-10T00:14:14.471Z,0.90
2022-08-10T00:16:41.587Z,0.70
2022-08-10T00:19:09.007Z,1.05
2022-08-10T00:21:36.973Z,0.90
2022-08-10T00:24:04.316Z,1.13
2022-08-10T00:27:52.031Z,1.08
2022-08-10T00:29:18.506Z,0.70
2022-08-10T00:31:58.154Z,1.00
2022-08-10T00:34:26.826Z,0.80
2022-08-10T00:36:53.916Z,1.00
2022-08-10T00:39:21.056Z,0.82
2022-08-10T00:42:02.175Z,0.68
2022-08-10T00:44:39.163Z,0.90
2022-08-10T00:47:06.912Z,1.00
2022-08-10T00:49:43.459Z,0.90
2022-08-10T00:52:14.153Z,0.80
2022-08-10T00:54:42.650Z,0.85
2022-08-10T00:57:18.130Z,0.90
2022-08-10T00:59:59.159Z,0.80
2022-08-10T01:02:32.097Z,1.10
2022-08-10T01:05:02.105Z,1.00
2022-08-10T01:07:49.174Z,0.85
2022-08-10T01:10:35.089Z,0.93
2022-08-10T01:13:21.691Z,0.88
2022-08-10T01:15:48.874Z,0.98
2022-08-10T01:18:22.445Z,1.02
2022-08-10T01:21:08.519Z,0.98
2022-08-10T01:24:00.889Z,1.00
2022-08-10T01:26:46.978Z,0.90
2022-08-10T01:29:45.846Z,0.80
2022-08-10T01:32:14.620Z,0.90
2022-08-10T01:37:13.387Z,0.90
2022-08-10T01:39:42.632Z,1.20
2022-08-10T01:42:12.371Z,1.00
2022-08-10T01:44:48.888Z,0.93
2022-08-10T01:47:36.839Z,0.70
2022-08-10T01:50:06.620Z,1.00
2022-08-10T01:52:36.064Z,1.00
2022-08-10T01:55:03.960Z,0.98
2022-08-10T01:57:32.354Z,1.13
2022-08-10T02:00:02.630Z,0.90
2022-08-10T02:02:31.380Z,1.13
2022-08-10T02:04:59.010Z,0.90
2022-08-10T02:07:27.680Z,0.80
2022-08-10T02:09:57.223Z,1.20
2022-08-10T02:12:27.660Z,1.08
2022-08-10T02:14:59.581Z,0.90
2022-08-10T02:17:57.511Z,0.90
2022-08-10T02:20:22.910Z,1.00
2022-08-10T02:22:52.157Z,0.90
2022-08-10T02:25:40.705Z,1.00
2022-08-10T02:28:08.071Z,1.20
2022-08-10T02:30:35.936Z,1.10
2022-08-10T02:33:04.149Z,1.20
2022-08-10T02:35:42.183Z,1.00
2022-08-10T02:38:21.408Z,1.42
2022-08-10T02:45:14.339Z,0.98
2022-08-10T02:45:19.721Z,1.30
2022-08-10T02:46:37.097Z,1.15
2022-08-10T02:49:05.359Z,0.85
2022-08-10T02:52:07.781Z,1.10
2022-08-10T02:54:27.282Z,1.08
2022-08-10T02:57:03.333Z,1.13
2022-08-10T02:59:40.138Z,1.10
2022-08-10T03:02:09.330Z,1.20
2022-08-10T03:07:42.792Z,0.88
2022-08-10T03:10:17.303Z,1.50
2022-08-10T03:12:44.858Z,1.02
2022-08-10T03:15:15.586Z,1.10
2022-08-10T03:17:57.594Z,1.27
2022-08-10T03:20:38.024Z,1.10
2022-08-10T03:23:08.051Z,1.27
2022-08-10T03:28:02.838Z,1.20
2022-08-10T03:30:33.648Z,1.20
2022-08-10T03:33:02.251Z,1.30
2022-08-10T03:35:29.745Z,1.10
2022-08-10T03:37:59.669Z,1.25
2022-08-10T03:40:45.643Z,1.10
2022-08-10T03:43:14.580Z,1.10
2022-08-10T03:45:54.549Z,0.93
2022-08-10T03:48:24.109Z,1.27
2022-08-10T03:50:52.960Z,0.90
2022-08-10T03:53:25.229Z,1.30
2022-08-10T03:56:30.495Z,1.13
2022-08-10T03:58:55.599Z,1.60
2022-08-10T04:02:46.580Z,1.30
2022-08-10T04:04:10.904Z,1.23
2022-08-10T04:06:40.845Z,1.83
2022-08-10T04:09:08.007Z,1.10
2022-08-10T04:11:36.966Z,1.55
2022-08-10T04:14:07.954Z,1.35
2022-08-10T04:19:23.045Z,1.30
2022-08-10T04:21:55.737Z,1.33
2022-08-10T04:24:29.877Z,1.10
2022-08-10T04:27:01.066Z,1.35
2022-08-10T04:29:28.375Z,1.30
2022-08-10T04:31:55.543Z,1.30
2022-08-10T04:34:23.285Z,1.20
2022-08-10T04:36:52.083Z,1.70
2022-08-10T04:41:47.457Z,1.25
2022-08-10T04:44:15.107Z,1.20
2022-08-10T04:46:56.474Z,1.00
2022-08-10T04:49:54.920Z,1.10
2022-08-10T04:52:13.339Z,1.30
2022-08-10T04:54:40.445Z,1.10
2022-08-10T04:57:09.113Z,1.10
2022-08-10T04:59:36.385Z,1.15
2022-08-10T05:02:28.247Z,1.20
2022-08-10T05:04:50.624Z,1.30
2022-08-10T05:07:18.308Z,1.42
2022-08-10T05:10:02.740Z,1.30
2022-08-10T05:12:32.789Z,1.40
2022-08-10T05:15:03.205Z,1.20
2022-08-10T05:17:30.377Z,1.60
2022-08-10T05:20:04.321Z,1.27
2022-08-10T05:22:33.832Z,1.40
2022-08-10T05:25:01.090Z,1.15
2022-08-10T05:27:28.222Z,2.30
2022-08-10T05:30:02.225Z,2.28
2022-08-10T05:32:30.642Z,1.88
2022-08-10T05:34:58.020Z,1.20
2022-08-10T05:38:09.889Z,1.20
2022-08-10T05:40:12.889Z,1.10
2022-08-10T05:42:40.368Z,1.20
2022-08-10T05:45:10.225Z,1.42
2022-08-10T05:48:55.248Z,1.45
2022-08-10T05:50:26.850Z,1.27
2022-08-10T05:52:54.312Z,1.45
2022-08-10T05:55:22.998Z,1.60
2022-08-10T05:57:50.515Z,1.50
2022-08-10T06:00:36.340Z,1.38
2022-08-10T06:03:08.622Z,1.33
2022-08-10T06:05:37.780Z,1.80
2022-08-10T06:08:08.322Z,1.88
2022-08-10T06:12:16.537Z,1.42
2022-08-10T06:13:59.833Z,1.77
2022-08-10T06:16:33.036Z,1.85
2022-08-10T06:19:02.742Z,1.80
2022-08-10T06:21:29.938Z,1.92
2022-08-10T06:23:59.730Z,1.33
2022-08-10T06:26:26.929Z,1.95
2022-08-10T06:29:04.207Z,1.83
2022-08-10T06:31:48.210Z,1.92
2022-08-10T06:34:17.337Z,1.55
2022-08-10T06:36:45.051Z,2.30
2022-08-10T06:39:32.341Z,2.10
2022-08-10T06:42:16.620Z,1.60
2022-08-10T06:44:52.300Z,2.10
2022-08-10T06:47:22.889Z,1.77
2022-08-10T06:49:53.138Z,1.85
2022-08-10T06:52:20.815Z,1.48
2022-08-10T06:54:49.031Z,1.77
2022-08-10T06:57:18.187Z,1.23
2022-08-10T06:59:49.054Z,1.92
2022-08-10T07:02:20.264Z,1.40
2022-08-10T07:04:50.191Z,2.13
2022-08-10T07:07:21.081Z,1.58
2022-08-10T07:09:48.851Z,2.50
2022-08-10T07:12:16.300Z,2.63
2022-08-10T07:14:44.960Z,2.58
2022-08-10T07:17:16.500Z,3.03
2022-08-10T07:19:49.828Z,2.92
2022-08-10T07:23:08.587Z,2.40
2022-08-10T07:25:08.378Z,2.90
2022-08-10T07:27:39.358Z,3.10
2022-08-10T07:30:23.471Z,3.00
2022-08-10T07:32:51.732Z,2.80
2022-08-10T07:35:19.698Z,2.60
2022-08-10T07:37:49.327Z,2.42
2022-08-10T07:40:18.595Z,2.50
2022-08-10T07:42:48.011Z,2.20
2022-08-10T07:45:15.416Z,3.42
2022-08-10T07:47:53.131Z,2.08
2022-08-10T07:50:23.016Z,1.80
2022-08-10T07:52:52.480Z,2.25
2022-08-10T07:56:03.710Z,2.42
2022-08-10T07:58:08.519Z,1.80
2022-08-10T08:00:35.908Z,2.40
2022-08-10T08:03:04.201Z,2.58
2022-08-10T08:06:02.842Z,2.72
2022-08-10T08:08:22.191Z,2.53
2022-08-10T08:10:49.595Z,2.63
2022-08-10T08:13:19.614Z,2.45
2022-08-10T08:16:17.290Z,2.90
2022-08-10T08:18:37.132Z,2.08
2022-08-10T08:24:01.818Z,2.08
2022-08-10T08:24:06.315Z,2.33
2022-08-10T08:26:40.388Z,2.78
2022-08-10T08:29:09.347Z,2.10
2022-08-10T08:31:36.711Z,1.80
2022-08-10T08:34:22.110Z,2.30
2022-08-10T08:36:50.029Z,1.90
2022-08-10T08:39:17.345Z,1.80
2022-08-10T08:41:53.643Z,2.22
2022-08-10T08:44:39.227Z,2.10
2022-08-10T08:47:18.762Z,2.20
2022-08-10T08:50:14.619Z,1.58
2022-08-10T08:52:51.151Z,2.10
2022-08-10T08:56:03.452Z,2.90
2022-08-10T08:58:30.659Z,2.20
2022-08-10T09:01:03.721Z,2.13
2022-08-10T09:03:49.587Z,1.90
2022-08-10T09:06:25.903Z,1.70
2022-08-10T09:08:58.787Z,1.98
2022-08-10T09:11:34.450Z,2.30
2022-08-10T09:14:07.252Z,2.20
2022-08-10T09:16:48.183Z,1.95
2022-08-10T09:19:35.334Z,2.10
2022-08-10T09:22:17.488Z,1.60
2022-08-10T09:24:48.548Z,1.90
2022-08-10T09:27:19.956Z,2.10
2022-08-10T09:29:54.956Z,2.00
2022-08-10T09:36:15.790Z,2.00
2022-08-10T09:36:23.358Z,2.30
2022-08-10T09:38:29.579Z,1.85
2022-08-10T09:41:12.270Z,2.58
2022-08-10T09:43:40.336Z,2.63
2022-08-10T09:46:33.521Z,2.30
2022-08-10T09:49:17.515Z,1.88
2022-08-10T09:51:54.485Z,2.03
2022-08-10T09:54:26.914Z,2.50
2022-08-10T09:57:46.159Z,1.60
2022-08-10T10:00:01.929Z,2.10
2022-08-10T10:02:35.479Z,1.92
2022-08-10T10:05:21.304Z,2.17
2022-08-10T10:07:54.313Z,2.67
2022-08-10T10:10:26.595Z,1.73
2022-08-10T10:13:01.897Z,2.30
2022-08-10T10:15:38.427Z,2.08
2022-08-10T10:18:08.134Z,2.10
2022-08-10T10:20:53.930Z,2.38
2022-08-10T10:23:26.764Z,2.20
2022-08-10T10:26:18.505Z,1.98
2022-08-10T10:29:44.927Z,2.22
2022-08-10T10:31:51.252Z,2.17
2022-08-10T10:34:18.379Z,2.15
2022-08-10T10:36:46.413Z,2.10
2022-08-10T10:39:14.834Z,1.63
2022-08-10T10:42:03.372Z,1.77
2022-08-10T10:44:31.404Z,2.30
2022-08-10T10:47:10.362Z,2.35
2022-08-10T10:49:42.615Z,1.88
2022-08-10T10:52:15.872Z,2.13
2022-08-10T10:54:51.405Z,2.20
2022-08-10T10:58:00.128Z,1.80
2022-08-10T11:00:27.155Z,2.20
2022-08-10T11:02:57.190Z,1.77
2022-08-10T11:05:33.355Z,2.28
2022-08-10T11:08:19.163Z,1.70
2022-08-10T11:10:58.815Z,2.13
2022-08-10T11:14:26.649Z,2.00
2022-08-10T11:19:00.044Z,1.90
2022-08-10T11:21:41.620Z,2.30
2022-08-10T11:24:47.821Z,1.90
2022-08-10T11:29:45.309Z,2.10
2022-08-10T11:32:21.032Z,1.83
2022-08-10T11:35:10.561Z,1.80
2022-08-10T11:38:31.039Z,1.85
2022-08-10T11:40:39.394Z,1.92
2022-08-10T11:43:09.397Z,2.10
2022-08-10T11:45:37.865Z,2.05
2022-08-10T11:48:53.886Z,2.08
2022-08-10T11:51:27.633Z,2.22
2022-08-10T11:53:59.385Z,1.88
2022-08-10T11:56:30.900Z,2.00
2022-08-10T11:59:17.611Z,1.77
2022-08-10T12:01:45.724Z,2.20
2022-08-10T12:04:14.485Z,1.92
2022-08-10T12:10:09.588Z,2.08
2022-08-10T12:12:11.492Z,1.90
2022-08-10T12:14:49.222Z,1.80
2022-08-10T12:17:34.971Z,1.88
2022-08-10T12:20:11.114Z,1.92
2022-08-10T12:22:49.396Z,2.50
2022-08-10T12:25:55.783Z,2.20
2022-08-10T12:28:15.473Z,1.88
2022-08-10T12:30:48.015Z,2.03
2022-08-10T12:33:20.320Z,1.70
2022-08-10T12:36:17.359Z,1.73
2022-08-10T12:39:07.605Z,1.90
2022-08-10T12:41:44.336Z,2.00
2022-08-10T12:44:12.245Z,1.90
2022-08-10T12:46:51.260Z,2.10
2022-08-10T12:49:21.331Z,2.60
2022-08-10T12:51:54.085Z,2.15
2022-08-10T12:54:32.323Z,2.22
2022-08-10T12:57:13.975Z,1.65
2022-08-10T12:59:43.798Z,2.05
2022-08-10T13:02:13.717Z,2.05
2022-08-10T13:04:42.793Z,1.90
2022-08-10T13:08:03.316Z,2.05
2022-08-10T13:10:11.784Z,2.05
2022-08-10T13:15:46.083Z,1.98
2022-08-10T13:18:06.080Z,1.80
2022-08-10T13:20:45.857Z,1.90
2022-08-10T13:23:15.317Z,2.05
2022-08-10T13:25:48.506Z,1.98
2022-08-10T13:28:35.652Z,2.03
2022-08-10T13:31:06.159Z,2.25
2022-08-10T13:34:39.955Z,2.20
2022-08-10T13:36:23.280Z,2.20
2022-08-10T13:38:51.535Z,1.80
2022-08-10T13:41:19.096Z,2.10
2022-08-10T13:43:53.758Z,1.98
2022-08-10T13:46:22.939Z,2.35
2022-08-10T13:48:53.729Z,1.90
2022-08-10T13:51:57.345Z,1.90
2022-08-10T13:54:13.990Z,1.90
2022-08-10T13:59:10.087Z,1.70
2022-08-10T14:01:38.436Z,2.50
2022-08-10T14:04:07.363Z,1.73
2022-08-10T14:06:34.782Z,2.10
2022-08-10T14:09:08.900Z,1.92
2022-08-10T14:14:24.554Z,2.13
2022-08-10T14:16:52.445Z,2.00
2022-08-10T14:19:21.823Z,2.00
2022-08-10T14:21:49.592Z,1.98
2022-08-10T14:24:26.706Z,1.98
2022-08-10T14:27:08.970Z,1.90
2022-08-10T14:29:44.117Z,1.90
2022-08-10T14:32:12.477Z,1.60
2022-08-10T14:34:59.506Z,2.20
2022-08-10T14:37:38.744Z,2.05
2022-08-10T14:40:07.687Z,2.35
2022-08-10T14:45:03.514Z,1.73
2022-08-10T14:47:53.359Z,1.58
2022-08-10T14:50:31.471Z,2.10
2022-08-10T14:53:00.235Z,1.60
2022-08-10T14:55:27.739Z,1.52
2022-08-10T14:58:19.598Z,1.75
2022-08-10T15:00:43.665Z,1.83
2022-08-10T15:04:00.659Z,2.40
2022-08-10T15:06:00.541Z,1.83
2022-08-10T15:08:29.054Z,1.80
2022-08-10T15:11:05.126Z,2.03
2022-08-10T15:13:35.023Z,2.00
2022-08-10T15:16:12.535Z,1.70
2022-08-10T15:18:58.331Z,1.50
2022-08-10T15:21:35.680Z,1.60
2022-08-10T15:24:15.216Z,1.70
2022-08-10T15:26:51.276Z,1.63
2022-08-10T15:29:25.720Z,1.80
2022-08-10T15:32:12.110Z,1.30
2022-08-10T15:34:58.652Z,1.63
2022-08-10T15:37:39.339Z,1.88
2022-08-10T15:40:23.841Z,1.58
2022-08-10T15:43:36.149Z,1.83
2022-08-10T15:46:20.855Z,1.60
2022-08-10T15:48:50.793Z,1.40
2022-08-10T15:51:22.099Z,1.63
2022-08-10T15:54:02.124Z,1.33
2022-08-10T15:56:41.824Z,1.70
2022-08-10T15:59:17.515Z,1.63
2022-08-10T16:02:12.814Z,1.73
2022-08-10T16:04:59.022Z,1.50
2022-08-10T16:07:45.589Z,1.20
2022-08-10T16:10:25.152Z,1.50
2022-08-10T16:13:50.316Z,1.48
2022-08-10T16:15:54.244Z,1.20
2022-08-10T16:18:25.643Z,1.95
2022-08-10T16:20:55.380Z,1.50
2022-08-10T16:23:35.768Z,1.48
2022-08-10T16:26:14.572Z,1.55
2022-08-10T16:28:45.210Z,1.63
2022-08-10T16:31:19.273Z,1.40
2022-08-10T16:33:52.712Z,1.73
2022-08-10T16:36:22.094Z,1.58
2022-08-10T16:38:50.833Z,1.52
2022-08-10T16:42:04.183Z,1.65
2022-08-10T16:44:10.448Z,1.60
2022-08-10T16:46:41.765Z,1.67
2022-08-10T16:49:09.434Z,1.70
2022-08-10T16:51:36.808Z,1.58
2022-08-10T16:54:04.601Z,1.30
2022-08-10T16:56:34.045Z,1.20
2022-08-10T16:59:20.804Z,1.40
2022-08-10T17:01:53.968Z,1.50
2022-08-10T17:04:23.055Z,1.50
2022-08-10T17:06:55.850Z,1.85
2022-08-10T17:09:26.359Z,1.50
2022-08-10T17:11:55.136Z,1.48
2022-08-10T17:14:23.739Z,1.35
2022-08-10T17:17:00.391Z,1.83
2022-08-10T17:19:28.782Z,1.40
2022-08-10T17:21:57.948Z,1.50
2022-08-10T17:24:29.008Z,1.75
2022-08-10T17:26:57.453Z,1.50
2022-08-10T17:29:58.113Z,1.73
2022-08-10T17:32:18.527Z,1.60
2022-08-10T17:34:47.271Z,1.30
2022-08-10T17:44:37.155Z,1.67
2022-08-10T17:47:11.057Z,1.63
2022-08-10T17:49:38.936Z,1.33
2022-08-10T17:52:08.105Z,1.13
2022-08-10T17:54:37.217Z,1.45
2022-08-10T17:57:09.983Z,1.30
2022-08-10T17:59:38.619Z,1.30
2022-08-10T18:02:10.003Z,1.50
2022-08-10T18:04:42.235Z,1.55
2022-08-10T18:07:10.761Z,2.00
2022-08-10T18:09:40.474Z,1.67
2022-08-10T18:12:18.119Z,1.85
2022-08-10T18:14:47.467Z,1.50
2022-08-10T18:22:10.771Z,1.50
2022-08-10T18:24:38.258Z,1.50
2022-08-10T18:27:06.706Z,1.30
2022-08-10T18:29:34.989Z,1.70
2022-08-10T18:32:03.174Z,1.60
2022-08-10T18:34:31.013Z,1.58
2022-08-10T18:36:58.336Z,1.50
2022-08-10T18:39:28.097Z,1.50
2022-08-10T18:42:00.585Z,1.65
2022-08-10T18:44:34.394Z,1.45
2022-08-10T18:47:02.770Z,1.38
2022-08-10T18:49:31.602Z,1.48
2022-08-10T18:52:02.397Z,1.30
2022-08-10T18:54:43.942Z,1.40
2022-08-10T18:57:25.869Z,1.70
2022-08-10T19:00:07.852Z,1.27
2022-08-10T19:02:50.900Z,1.38
2022-08-10T19:05:48.278Z,1.45
2022-08-10T19:08:34.649Z,1.40
2022-08-10T19:11:05.416Z,1.10
2022-08-10T19:13:35.401Z,1.58
2022-08-10T19:16:14.974Z,1.50
2022-08-10T19:18:54.891Z,1.30
2022-08-10T19:21:28.532Z,1.52
2022-08-10T19:24:03.629Z,1.60
2022-08-10T19:26:49.511Z,1.38
2022-08-10T19:30:12.059Z,1.42
2022-08-10T19:32:22.552Z,1.15
2022-08-10T19:34:55.586Z,1.55
2022-08-10T19:37:34.500Z,1.50
2022-08-10T19:40:04.961Z,1.65
2022-08-10T19:42:47.671Z,1.67
2022-08-10T19:45:58.194Z,1.42
2022-08-10T19:48:20.540Z,1.30
2022-08-10T19:50:58.943Z,1.63
2022-08-10T19:53:26.085Z,1.70
2022-08-10T19:56:24.247Z,1.42
2022-08-10T19:58:55.480Z,1.23
2022-08-10T20:01:22.942Z,2.13
2022-08-10T20:04:10.546Z,1.70
2022-08-10T20:06:46.599Z,1.83
2022-08-10T20:09:16.634Z,2.03
2022-08-10T20:11:54.980Z,1.90
2022-08-10T20:14:41.543Z,1.88
2022-08-10T20:17:51.676Z,2.30
2022-08-10T20:20:19.761Z,2.63
2022-08-10T20:22:50.321Z,3.00
2022-08-10T20:25:20.746Z,3.95
2022-08-10T20:28:00.755Z,4.88
2022-08-10T20:30:31.789Z,5.68
2022-08-10T20:33:08.715Z,4.55
2022-08-10T20:35:41.766Z,3.88
2022-08-10T20:38:14.877Z,3.72
2022-08-10T20:40:52.137Z,3.63
2022-08-10T20:43:29.461Z,2.90
2022-08-10T20:46:09.571Z,2.80
2022-08-10T20:48:44.731Z,2.92
2022-08-10T20:51:58.528Z,2.72
2022-08-10T20:54:23.309Z,2.30
2022-08-10T20:56:53.135Z,2.28
2022-08-10T20:59:33.673Z,2.38
2022-08-10T21:02:25.314Z,2.30
2022-08-10T21:05:03.851Z,2.25
2022-08-10T21:08:02.616Z,2.13
2022-08-10T21:10:32.656Z,2.25
2022-08-10T21:13:16.279Z,1.85
2022-08-10T21:16:02.125Z,1.90
2022-08-10T21:18:51.915Z,1.95
2022-08-10T21:21:19.337Z,1.70
2022-08-10T21:24:07.062Z,1.70
2022-08-10T21:26:46.787Z,1.70
2022-08-10T21:29:37.970Z,2.03
2022-08-10T21:32:11.132Z,1.70
2022-08-10T21:34:50.712Z,1.25
2022-08-10T21:37:39.858Z,1.33
2022-08-10T21:40:34.933Z,2.00
2022-08-10T21:43:44.633Z,1.52
2022-08-10T21:46:34.416Z,1.60
2022-08-10T21:49:25.095Z,1.60
2022-08-10T21:52:32.315Z,1.80
2022-08-10T21:58:45.775Z,1.70
2022-08-10T22:01:39.481Z,1.92
2022-08-10T22:04:25.800Z,1.45
2022-08-10T22:07:12.195Z,1.50
2022-08-10T22:09:59.815Z,1.52
2022-08-10T22:12:49.677Z,1.70
2022-08-10T22:16:03.759Z,1.45
2022-08-10T22:19:01.324Z,1.85
2022-08-10T22:22:04.373Z,2.03
2022-08-10T22:25:16.847Z,1.40
2022-08-10T22:28:03.090Z,1.33
2022-08-10T22:31:22.781Z,1.60
2022-08-10T22:31:25.592Z,1.77
2022-08-10T22:34:01.672Z,1.58
2022-08-10T22:36:56.159Z,1.40
2022-08-10T22:40:11.448Z,1.60
2022-08-10T22:43:09.772Z,1.52
2022-08-10T22:45:58.226Z,1.40
2022-08-10T22:48:44.563Z,1.83
2022-08-10T22:51:15.725Z,1.77
2022-08-10T22:54:06.886Z,1.80
2022-08-10T22:56:58.848Z,1.35
2022-08-10T22:59:27.739Z,1.50
2022-08-10T23:02:07.427Z,1.50
2022-08-10T23:04:44.727Z,1.75
2022-08-10T23:07:20.919Z,1.10
2022-08-10T23:09:57.140Z,1.75
2022-08-10T23:12:28.999Z,1.88
2022-08-10T23:15:17.577Z,1.98
2022-08-10T23:18:08.484Z,1.92
2022-08-10T23:20:37.350Z,1.58
2022-08-10T23:23:09.702Z,1.83
2022-08-10T23:25:43.782Z,1.85
2022-08-10T23:28:39.315Z,1.55
2022-08-10T23:31:13.981Z,1.95
2022-08-10T23:33:42.536Z,1.60
2022-08-10T23:36:33.346Z,1.50
2022-08-10T23:39:27.084Z,1.65
2022-08-10T23:41:53.203Z,1.73
2022-08-10T23:44:21.147Z,1.27
2022-08-10T23:46:49.209Z,1.73
2022-08-10T23:49:17.064Z,1.60
2022-08-10T23:51:55.844Z,1.75
2022-08-10T23:54:24.344Z,1.60
2022-08-10T23:56:52.865Z,1.30
2022-08-10T23:59:24.204Z,1.63
